Time;durP1;ratioP1;P1;durP2;ratioP2;P2;SDS_P1;SDS_P2;PMS_P1;PMS_P2;Temp;Humidity;BMP_temperature;BMP_pressure;BME280_temperature;BME280_humidity;BME280_pressure;Samples;Min_cycle;Max_cycle;Signal;HPM_P1;HPM_P2
2021/05/27 00:00:28;;;;;;;471.30;398.43;;;;;;;12.88;59.78;98583.44;5047241;28;20433;-63
2021/05/27 00:02:53;;;;;;;471.97;410.47;;;;;;;12.86;60.04;98585.22;5045775;28;20044;-62
2021/05/27 00:05:20;;;;;;;470.10;395.90;;;;;;;12.84;60.25;98582.69;5047716;28;20640;-61
2021/05/27 00:07:46;;;;;;;473.67;404.47;;;;;;;12.84;60.41;98587.84;5046153;28;20036;-60
2021/05/27 00:10:14;;;;;;;479.60;413.67;;;;;;;12.85;62.04;98593.84;5032970;28;20295;-61
2021/05/27 00:12:39;;;;;;;471.20;402.37;;;;;;;12.78;61.72;98583.69;5044188;28;20328;-62
2021/05/27 00:15:06;;;;;;;479.00;412.20;;;;;;;12.79;62.65;98593.13;5042565;28;20275;-62
2021/05/27 00:17:32;;;;;;;469.37;392.70;;;;;;;12.71;63.39;98581.34;5044635;28;20164;-62
2021/05/27 00:19:58;;;;;;;468.57;399.70;;;;;;;12.69;62.32;98580.53;5049339;28;20362;-61
2021/05/27 00:22:24;;;;;;;476.47;411.63;;;;;;;12.69;62.30;98583.97;5043797;28;20302;-62
2021/05/27 00:24:49;;;;;;;474.33;402.73;;;;;;;12.73;62.29;98589.88;5045641;28;20366;-60
2021/05/27 00:27:15;;;;;;;468.67;401.07;;;;;;;12.69;62.57;98580.53;5046562;28;20053;-62
2021/05/27 00:29:41;;;;;;;469.33;402.60;;;;;;;12.66;63.10;98589.19;5049012;28;20090;-61
2021/05/27 00:32:06;;;;;;;470.97;399.17;;;;;;;12.68;63.17;98587.44;5047051;28;20032;-61
2021/05/27 00:34:32;;;;;;;469.27;391.80;;;;;;;12.69;62.65;98588.25;5048464;28;20029;-61
2021/05/27 00:36:57;;;;;;;469.73;397.67;;;;;;;12.70;63.05;98593.38;5044389;28;20073;-61
2021/05/27 00:39:22;;;;;;;467.77;391.60;;;;;;;12.70;63.56;98590.78;5044240;28;20342;-61
2021/05/27 00:41:48;;;;;;;470.80;397.77;;;;;;;12.65;64.31;98584.09;5048566;28;20279;-61
2021/05/27 00:44:20;;;;;;;466.77;387.17;;;;;;;12.69;64.23;98583.97;5048129;28;20051;-61
2021/05/27 00:46:46;;;;;;;469.57;393.73;;;;;;;12.57;64.79;98586.88;5049573;28;20094;-61
2021/05/27 00:49:11;;;;;;;467.10;389.17;;;;;;;12.57;65.23;98592.03;5047127;28;20299;-61
2021/05/27 00:51:37;;;;;;;473.80;400.73;;;;;;;12.54;65.59;98592.13;5043802;28;20060;-61
2021/05/27 00:54:03;;;;;;;468.23;393.43;;;;;;;12.55;65.83;98600.69;5045942;28;20037;-61
2021/05/27 00:56:28;;;;;;;469.27;398.07;;;;;;;12.51;65.42;98592.22;5045984;28;20251;-61
2021/05/27 00:58:54;;;;;;;464.60;383.53;;;;;;;12.44;66.02;98595.81;5045598;28;20029;-61
2021/05/27 01:01:19;;;;;;;471.60;382.67;;;;;;;12.50;64.50;98599.94;5045595;28;20041;-61
2021/05/27 01:03:45;;;;;;;470.93;379.97;;;;;;;12.50;65.04;98594.81;5045565;28;20107;-61
2021/05/27 01:06:11;;;;;;;470.63;384.57;;;;;;;12.49;65.26;98599.09;5044716;28;20405;-61
2021/05/27 01:08:37;;;;;;;469.57;390.30;;;;;;;12.49;65.31;98596.53;5044186;28;20075;-61
2021/05/27 01:11:03;;;;;;;466.37;390.57;;;;;;;12.45;66.31;98597.50;5045196;28;20667;-61
2021/05/27 01:13:28;;;;;;;473.37;389.30;;;;;;;12.47;65.27;98598.31;5046597;28;20349;-61
2021/05/27 01:15:54;;;;;;;468.23;383.60;;;;;;;12.47;65.56;98600.91;5047775;28;20437;-61
2021/05/27 01:18:21;;;;;;;470.33;383.20;;;;;;;12.44;65.88;98597.53;5047730;28;20029;-61
2021/05/27 01:20:52;;;;;;;465.23;382.47;;;;;;;12.44;66.80;98611.22;5046228;28;20041;-61
2021/05/27 01:23:19;;;;;;;468.60;382.57;;;;;;;12.38;66.52;98606.28;5046850;28;20712;-61
2021/05/27 01:25:48;;;;;;;463.63;381.50;;;;;;;12.40;66.18;98613.94;5047071;28;20287;-61
2021/05/27 01:28:14;;;;;;;469.20;388.70;;;;;;;12.39;65.87;98612.25;5049902;28;20295;-61
2021/05/27 01:30:41;;;;;;;471.73;389.87;;;;;;;12.40;65.74;98603.66;5047545;28;20684;-61
2021/05/27 01:33:11;;;;;;;468.93;386.40;;;;;;;12.42;65.83;98605.31;5050779;28;20767;-61
2021/05/27 01:35:37;;;;;;;466.73;377.27;;;;;;;12.43;65.46;98607.00;5051681;28;20927;-61
2021/05/27 01:38:20;;;;;;;467.70;380.27;;;;;;;12.50;64.90;98605.94;5049567;28;20366;-61
2021/05/27 01:40:46;;;;;;;464.40;378.57;;;;;;;12.48;64.91;98606.84;5052178;28;20029;-61
2021/05/27 01:43:12;;;;;;;467.47;382.97;;;;;;;12.50;64.70;98605.94;5053550;28;20279;-61
2021/05/27 01:45:38;;;;;;;463.53;381.13;;;;;;;12.50;65.39;98602.53;5049808;28;20035;-61
2021/05/27 01:48:04;;;;;;;465.37;382.77;;;;;;;12.52;65.84;98604.16;5055683;28;20350;-61
2021/05/27 01:50:30;;;;;;;475.33;386.27;;;;;;;12.51;66.74;98601.66;5046843;28;20295;-61
2021/05/27 01:53:00;;;;;;;466.27;373.60;;;;;;;12.51;67.12;98606.78;5050583;28;20286;-61
2021/05/27 01:55:26;;;;;;;474.87;402.33;;;;;;;12.49;66.27;98604.25;5049097;28;20564;-61
2021/05/27 01:57:52;;;;;;;472.37;383.13;;;;;;;12.48;65.14;98605.13;5051062;28;20292;-61
2021/05/27 02:00:18;;;;;;;471.00;400.83;;;;;;;12.48;66.03;98609.41;5053835;28;20272;-61
2021/05/27 02:02:45;;;;;;;466.63;380.27;;;;;;;12.44;65.62;98606.09;5057423;28;20036;-61
2021/05/27 02:05:11;;;;;;;473.23;393.07;;;;;;;12.44;66.38;98602.69;5046968;28;20366;-61
2021/05/27 02:07:37;;;;;;;468.03;383.53;;;;;;;12.40;66.09;98607.06;5049775;28;20279;-61
2021/05/27 02:10:04;;;;;;;471.43;389.57;;;;;;;12.43;65.54;98608.72;5050993;28;20283;-61
2021/05/27 02:12:29;;;;;;;465.53;375.57;;;;;;;12.38;65.75;98611.41;5052501;28;20186;-61
2021/05/27 02:14:54;;;;;;;463.87;374.47;;;;;;;12.31;66.37;98613.28;5048636;28;20374;-61
2021/05/27 02:17:20;;;;;;;465.37;376.83;;;;;;;12.43;65.30;98613.88;5051726;28;20362;-61
2021/05/27 02:19:45;;;;;;;464.13;375.20;;;;;;;12.47;64.78;98611.19;5048173;28;20030;-61
2021/05/27 02:22:11;;;;;;;465.20;371.97;;;;;;;12.44;65.55;98615.53;5050912;28;20028;-62
2021/05/27 02:24:36;;;;;;;461.50;365.17;;;;;;;12.40;66.27;98619.91;5053099;28;20041;-62
2021/05/27 02:27:02;;;;;;;463.33;362.70;;;;;;;12.45;66.25;98622.38;5051821;28;20033;-61
2021/05/27 02:29:27;;;;;;;466.23;370.63;;;;;;;12.41;65.90;98621.63;5055512;28;20047;-61
2021/05/27 02:31:53;;;;;;;465.27;364.53;;;;;;;12.41;66.41;98619.03;5054002;28;20036;-61
2021/05/27 02:34:18;;;;;;;464.10;372.63;;;;;;;12.33;67.11;98626.13;5048587;28;20112;-61
2021/05/27 02:36:44;;;;;;;462.80;360.97;;;;;;;12.32;67.82;98625.28;5050987;28;20029;-61
2021/05/27 02:39:09;;;;;;;464.33;369.97;;;;;;;12.28;68.49;98627.94;5050472;28;20112;-61
2021/05/27 02:41:34;;;;;;;460.53;367.23;;;;;;;12.22;68.57;98620.41;5049362;28;20113;-61
2021/05/27 02:44:00;;;;;;;461.63;370.27;;;;;;;12.18;68.64;98613.63;5051817;28;20040;-61
2021/05/27 02:46:26;;;;;;;464.90;376.57;;;;;;;12.13;69.33;98616.34;5052219;28;20332;-61
2021/05/27 02:48:51;;;;;;;463.30;368.23;;;;;;;12.07;69.66;98613.94;5049336;28;20045;-61
2021/05/27 02:51:17;;;;;;;461.70;366.27;;;;;;;12.04;69.71;98613.16;5049818;28;20653;-61
2021/05/27 02:53:42;;;;;;;460.43;358.63;;;;;;;12.05;69.41;98613.09;5048892;28;20068;-61
2021/05/27 02:56:08;;;;;;;458.60;355.27;;;;;;;12.02;69.00;98613.19;5050906;28;20115;-61
2021/05/27 02:58:33;;;;;;;461.07;372.20;;;;;;;11.92;69.70;98611.75;5049422;28;20041;-61
2021/05/27 03:00:58;;;;;;;461.47;359.07;;;;;;;11.88;69.66;98612.72;5046631;28;20013;-62
2021/05/27 03:03:24;;;;;;;461.90;354.60;;;;;;;11.86;69.80;98619.59;5047637;28;20106;-61
2021/05/27 03:05:50;;;;;;;461.50;359.87;;;;;;;11.85;69.74;98618.75;5049368;28;20116;-61
2021/05/27 03:08:16;;;;;;;457.00;343.23;;;;;;;11.92;69.14;98621.19;5051785;28;20424;-61
2021/05/27 03:10:43;;;;;;;458.77;355.83;;;;;;;11.99;69.22;98613.28;5050353;28;20540;-61
2021/05/27 03:13:09;;;;;;;461.17;351.80;;;;;;;12.02;68.94;98613.19;5049180;28;20291;-62
2021/05/27 03:15:35;;;;;;;460.07;349.50;;;;;;;12.11;68.47;98618.09;5048344;28;20283;-61
2021/05/27 03:18:03;;;;;;;461.50;358.87;;;;;;;12.19;67.89;98621.31;5034920;28;20294;-62
2021/05/27 03:20:29;;;;;;;461.77;360.83;;;;;;;12.33;67.46;98618.41;5047727;28;20268;-60
2021/05/27 03:22:54;;;;;;;467.07;366.53;;;;;;;12.64;66.10;98619.28;5046213;28;20548;-61
2021/05/27 03:25:21;;;;;;;470.07;376.30;;;;;;;12.96;64.79;98618.34;5047279;28;20276;-61
2021/05/27 03:27:47;;;;;;;461.43;361.67;;;;;;;13.14;64.25;98615.28;5045860;28;20647;-61
2021/05/27 03:30:13;;;;;;;461.77;355.63;;;;;;;13.34;63.60;98621.56;5046394;28;20272;-61
2021/05/27 03:32:40;;;;;;;463.97;366.73;;;;;;;13.39;63.48;98623.13;5046798;28;20067;-61
2021/05/27 03:35:06;;;;;;;462.87;374.60;;;;;;;13.55;62.80;98611.44;5047364;28;20264;-60
2021/05/27 03:37:32;;;;;;;463.37;371.30;;;;;;;13.62;62.93;98617.28;5050375;28;20275;-60
2021/05/27 03:40:12;;;;;;;464.10;364.97;;;;;;;13.63;62.97;98614.63;5046240;28;20289;-60
2021/05/27 03:42:44;;;;;;;461.47;377.87;;;;;;;13.63;62.97;98608.63;5048641;28;20056;-61
2021/05/27 03:45:15;;;;;;;462.40;379.20;;;;;;;13.71;62.91;98612.66;5037090;28;20563;-61
2021/05/27 03:47:41;;;;;;;464.53;373.57;;;;;;;13.65;63.24;98619.75;5045820;28;20625;-61
2021/05/27 03:50:10;;;;;;;463.23;383.43;;;;;;;13.66;63.40;98609.38;5048831;28;20311;-61
2021/05/27 03:52:37;;;;;;;461.43;368.87;;;;;;;13.72;63.45;98611.75;5048370;28;20024;-61
2021/05/27 03:55:04;;;;;;;465.27;385.37;;;;;;;13.72;62.78;98614.34;5050303;28;20621;-61
2021/05/27 03:57:29;;;;;;;467.00;387.23;;;;;;;13.68;63.30;98617.91;5048407;28;20303;-61
2021/05/27 04:02:44;;;;;;;467.30;384.40;;;;;;;13.74;63.54;98616.88;5046626;28;20052;-61
2021/05/27 04:07:54;;;;;;;466.33;382.20;;;;;;;13.74;62.89;98606.56;5047207;28;20265;-61
2021/05/27 04:10:20;;;;;;;463.90;380.33;;;;;;;13.78;62.60;98605.59;5046053;28;20036;-60
2021/05/27 04:12:46;;;;;;;467.33;383.50;;;;;;;13.81;62.62;98604.63;5047035;28;20373;-61
2021/05/27 04:15:23;;;;;;;470.20;384.10;;;;;;;13.80;62.34;98590.03;5048511;28;20078;-60
2021/05/27 04:17:53;;;;;;;463.87;390.77;;;;;;;13.87;62.08;98589.81;5044285;28;20060;-60
2021/05/27 04:20:20;;;;;;;468.37;390.33;;;;;;;13.89;61.50;98594.91;5049287;28;20711;-60
2021/05/27 04:22:47;;;;;;;463.47;380.83;;;;;;;13.81;60.96;98591.75;5049376;28;20379;-60
2021/05/27 04:25:14;;;;;;;466.73;391.73;;;;;;;13.93;60.77;98586.19;5047796;28;20354;-61
2021/05/27 04:27:40;;;;;;;467.40;387.70;;;;;;;13.83;61.21;98601.13;5047003;28;20344;-60
2021/05/27 04:30:16;;;;;;;465.17;376.83;;;;;;;13.84;60.65;98596.78;5048169;28;20361;-61
2021/05/27 04:35:27;;;;;;;465.50;388.50;;;;;;;13.87;60.45;98601.88;5045524;28;20276;-60
2021/05/27 04:37:55;;;;;;;466.90;394.80;;;;;;;13.92;60.23;98600.81;5032135;28;21096;-60
2021/05/27 04:40:21;;;;;;;465.40;382.73;;;;;;;13.90;60.27;98599.19;5048831;28;20386;-61
2021/05/27 04:42:46;;;;;;;464.63;379.60;;;;;;;13.92;60.17;98595.66;5048944;28;20595;-61
2021/05/27 04:45:12;;;;;;;463.13;386.03;;;;;;;13.95;60.58;98597.28;5049827;28;20033;-61
2021/05/27 04:47:38;;;;;;;464.47;388.53;;;;;;;13.87;60.21;98614.75;5044346;28;20135;-60
2021/05/27 04:50:06;;;;;;;470.10;401.10;;;;;;;13.99;59.93;98604.88;5045818;28;20370;-60
2021/05/27 04:52:32;;;;;;;469.90;387.30;;;;;;;13.83;59.89;98614.00;5046069;28;20331;-60
2021/05/27 04:54:57;;;;;;;465.70;389.17;;;;;;;13.86;60.12;98610.47;5048680;28;20292;-61
2021/05/27 04:57:22;;;;;;;465.50;393.20;;;;;;;13.85;59.97;98612.22;5048741;28;20037;-60
2021/05/27 04:59:48;;;;;;;464.03;384.93;;;;;;;14.00;60.03;98609.13;5049993;28;20370;-60
2021/05/27 05:02:14;;;;;;;468.77;393.73;;;;;;;14.00;59.28;98610.88;5052139;28;20040;-61
2021/05/27 05:04:39;;;;;;;465.97;397.17;;;;;;;14.02;59.40;98615.09;5050816;28;20146;-60
2021/05/27 05:07:04;;;;;;;466.70;390.73;;;;;;;14.05;59.34;98614.13;5051422;28;20859;-59
2021/05/27 05:09:30;;;;;;;466.97;392.20;;;;;;;14.00;59.25;98616.03;5052335;28;20029;-60
2021/05/27 05:11:55;;;;;;;469.87;403.40;;;;;;;14.22;59.12;98613.56;5049729;28;20152;-61
2021/05/27 05:14:21;;;;;;;469.10;401.20;;;;;;;14.17;58.33;98611.97;5049028;28;20033;-61
2021/05/27 05:16:46;;;;;;;468.77;403.97;;;;;;;14.22;57.93;98611.81;5050061;28;20282;-61
2021/05/27 05:19:11;;;;;;;464.30;395.10;;;;;;;14.19;57.94;98623.09;5051739;28;20071;-61
2021/05/27 05:21:37;;;;;;;469.17;401.17;;;;;;;14.24;57.74;98619.53;5051636;28;20090;-61
2021/05/27 05:24:03;;;;;;;465.10;396.93;;;;;;;14.16;58.13;98612.06;5051693;28;20389;-61
2021/05/27 05:26:28;;;;;;;466.53;401.13;;;;;;;14.20;58.34;98621.38;5053224;28;20151;-61
2021/05/27 05:28:53;;;;;;;468.23;406.50;;;;;;;14.08;58.43;98617.47;5049916;28;20033;-61
2021/05/27 05:31:19;;;;;;;469.40;398.20;;;;;;;14.09;58.07;98631.19;5051134;28;20293;-62
2021/05/27 05:33:44;;;;;;;465.17;394.27;;;;;;;14.10;58.19;98638.88;5049143;28;20270;-60
2021/05/27 05:36:09;;;;;;;468.93;401.13;;;;;;;14.19;57.72;98629.97;5052175;28;20029;-60
2021/05/27 05:38:35;;;;;;;469.87;404.17;;;;;;;14.25;58.15;98640.09;5048174;28;20433;-61
2021/05/27 05:41:01;;;;;;;464.60;391.20;;;;;;;14.27;58.19;98640.88;5050987;28;20375;-60
2021/05/27 05:43:27;;;;;;;469.73;400.03;;;;;;;14.27;58.30;98633.16;5052564;28;20356;-61
2021/05/27 05:45:52;;;;;;;468.10;408.07;;;;;;;14.32;57.56;98648.47;5049175;28;20035;-60
2021/05/27 05:48:18;;;;;;;465.33;400.20;;;;;;;14.25;57.45;98657.31;5047792;28;20047;-60
2021/05/27 05:50:49;;;;;;;468.03;397.80;;;;;;;14.19;57.27;98655.78;5048371;28;20048;-62
2021/05/27 05:53:20;;;;;;;467.43;405.63;;;;;;;14.22;57.33;98653.09;5049389;28;20037;-60
2021/05/27 05:55:47;;;;;;;470.33;408.47;;;;;;;14.18;57.64;98651.50;5049791;28;20700;-62
2021/05/27 05:58:13;;;;;;;467.83;400.07;;;;;;;14.16;56.70;98658.47;5047896;28;20083;-60
2021/05/27 06:00:38;;;;;;;468.30;402.73;;;;;;;14.25;57.04;98659.91;5048520;28;20289;-62
2021/05/27 06:03:04;;;;;;;464.13;388.53;;;;;;;14.34;57.61;98657.00;5048920;28;20277;-61
2021/05/27 06:05:31;;;;;;;470.37;412.17;;;;;;;14.40;57.73;98662.81;5047879;28;20035;-61
2021/05/27 06:07:57;;;;;;;478.10;425.03;;;;;;;14.43;56.99;98665.28;5052351;28;20283;-62
2021/05/27 06:10:24;;;;;;;469.03;414.57;;;;;;;14.24;56.35;98666.78;5049242;28;20397;-61
2021/05/27 06:12:50;;;;;;;466.57;400.47;;;;;;;14.33;57.04;98673.38;5046030;28;20067;-61
2021/05/27 06:15:20;;;;;;;465.23;396.03;;;;;;;14.30;57.28;98663.16;5048183;28;20033;-63
2021/05/27 06:17:46;;;;;;;465.57;390.07;;;;;;;14.29;56.14;98664.91;5047995;28;20029;-61
2021/05/27 06:20:12;;;;;;;469.93;398.10;;;;;;;14.44;55.87;98663.56;5048221;28;20278;-61
2021/05/27 06:22:38;;;;;;;465.20;391.97;;;;;;;14.55;55.37;98670.03;5052646;28;20037;-61
2021/05/27 06:25:03;;;;;;;463.90;398.10;;;;;;;14.55;55.86;98664.06;5052700;28;20282;-62
2021/05/27 06:27:29;;;;;;;465.67;399.83;;;;;;;14.78;55.60;98661.50;5051042;28;20028;-62
2021/05/27 06:29:55;;;;;;;466.47;407.23;;;;;;;14.75;54.93;98671.09;5051484;28;20021;-60
2021/05/27 06:32:20;;;;;;;468.93;413.87;;;;;;;14.87;53.69;98668.06;5052506;28;20025;-62
2021/05/27 06:34:45;;;;;;;467.70;412.20;;;;;;;14.89;53.73;98668.88;5048544;28;20271;-62
2021/05/27 06:37:11;;;;;;;487.00;434.43;;;;;;;15.06;51.98;98664.75;5049195;28;20029;-61
2021/05/27 06:39:36;;;;;;;485.87;433.07;;;;;;;15.01;52.48;98671.00;5047786;28;20128;-62
2021/05/27 06:42:02;;;;;;;483.13;430.13;;;;;;;14.81;53.20;98676.06;5048136;28;20029;-62
2021/05/27 06:44:27;;;;;;;487.40;434.67;;;;;;;14.82;52.44;98668.22;5047989;28;20036;-61
2021/05/27 06:46:53;;;;;;;486.27;433.53;;;;;;;14.89;53.23;98671.47;5047860;28;20063;-61
2021/05/27 06:49:18;;;;;;;488.50;435.93;;;;;;;14.78;53.38;98670.97;5050309;28;20325;-61
2021/05/27 06:51:45;;;;;;;493.43;440.53;;;;;;;14.95;53.58;98678.97;5030534;28;20273;-61
2021/05/27 06:54:11;;;;;;;489.63;436.97;;;;;;;14.95;52.49;98684.13;5041046;28;20025;-60
2021/05/27 06:56:36;;;;;;;494.63;441.73;;;;;;;15.05;52.91;98682.91;5048653;28;20030;-60
2021/05/27 06:59:02;;;;;;;486.30;433.93;;;;;;;14.92;52.30;98679.09;5049774;28;20095;-60
2021/05/27 07:01:27;;;;;;;524.63;471.13;;;;;;;14.80;53.26;98682.09;5050322;28;20053;-60
2021/05/27 07:03:54;;;;;;;581.13;526.37;;;;;;;14.77;52.49;98697.66;5050401;28;20107;-61
2021/05/27 07:06:19;;;;;;;577.57;522.87;;;;;;;14.80;53.25;98687.25;5047676;28;20108;-61
2021/05/27 07:08:45;;;;;;;580.23;525.63;;;;;;;14.84;53.40;98691.41;5050781;28;20112;-61
2021/05/27 07:11:10;;;;;;;553.60;499.60;;;;;;;14.84;52.80;98692.28;5050698;28;20060;-62
2021/05/27 07:13:36;;;;;;;579.57;524.93;;;;;;;14.93;53.24;98691.09;5049460;28;20025;-61
2021/05/27 07:16:01;;;;;;;484.27;431.80;;;;;;;15.01;53.11;98694.25;5048784;28;20028;-61
2021/05/27 07:18:26;;;;;;;490.00;437.33;;;;;;;15.18;52.86;98697.06;5048276;28;20616;-62
2021/05/27 07:20:52;;;;;;;490.77;438.13;;;;;;;15.16;53.01;98693.69;5050012;28;20029;-61
2021/05/27 07:23:18;;;;;;;502.50;449.77;;;;;;;15.29;53.72;98688.91;5052056;28;20109;-61
2021/05/27 07:25:44;;;;;;;509.80;456.77;;;;;;;15.40;52.44;98695.34;5050301;28;20064;-61
2021/05/27 07:28:09;;;;;;;508.00;454.93;;;;;;;15.43;52.72;98684.94;5049851;28;20107;-61
2021/05/27 07:30:35;;;;;;;509.23;456.13;;;;;;;15.56;52.02;98693.09;5048574;28;20043;-61
2021/05/27 07:33:01;;;;;;;509.17;455.97;;;;;;;15.19;51.83;98690.97;5048768;28;20424;-61
2021/05/27 07:35:29;;;;;;;506.23;453.27;;;;;;;15.08;52.12;98699.13;5050620;28;20018;-61
2021/05/27 07:37:56;;;;;;;495.00;442.20;;;;;;;15.20;52.15;98697.00;5051458;28;20103;-61
2021/05/27 07:40:22;;;;;;;503.33;449.87;;;;;;;15.05;52.70;98703.56;5049972;28;20115;-61
2021/05/27 07:42:48;;;;;;;505.13;452.27;;;;;;;15.00;53.35;98700.31;5048118;28;20093;-61
2021/05/27 07:45:13;;;;;;;491.83;438.83;;;;;;;15.01;53.76;98697.69;5048455;28;20036;-61
2021/05/27 07:47:39;;;;;;;498.70;445.53;;;;;;;14.80;53.77;98706.19;5049539;28;20037;-61
2021/05/27 07:50:07;;;;;;;500.50;447.53;;;;;;;14.83;53.53;98690.56;5051239;28;20055;-61
2021/05/27 07:52:33;;;;;;;492.30;439.50;;;;;;;14.66;53.88;98708.38;5050947;28;20035;-61
2021/05/27 07:54:59;;;;;;;489.17;436.67;;;;;;;14.49;54.23;98711.53;5048288;28;20029;-61
2021/05/27 07:57:24;;;;;;;488.57;435.90;;;;;;;14.45;55.02;98701.38;5049090;28;20035;-61
2021/05/27 07:59:50;;;;;;;473.60;421.27;;;;;;;14.44;55.74;98707.41;5048169;28;20017;-61
2021/05/27 08:02:15;;;;;;;486.47;434.17;;;;;;;14.39;56.14;98715.28;5052185;28;20286;-61
2021/05/27 08:04:42;;;;;;;480.10;427.60;;;;;;;14.47;55.94;98702.97;5049541;28;20041;-60
2021/05/27 08:07:11;;;;;;;470.07;417.07;;;;;;;14.37;55.60;98703.34;5054460;28;20033;-61
2021/05/27 08:09:37;;;;;;;482.73;430.23;;;;;;;14.45;55.22;98714.25;5047432;28;20040;-61
2021/05/27 08:12:07;;;;;;;576.60;522.03;;;;;;;14.54;55.64;98719.97;5050303;28;20028;-61
2021/05/27 08:14:33;;;;;;;597.87;542.80;;;;;;;14.54;55.54;98719.97;5048932;28;20039;-60
2021/05/27 08:16:58;;;;;;;604.33;548.90;;;;;;;14.66;55.79;98728.19;5043755;28;20029;-60
2021/05/27 08:19:24;;;;;;;470.67;412.03;;;;;;;14.64;55.57;98729.06;5045098;28;20034;-61
2021/05/27 08:21:50;;;;;;;478.67;426.33;;;;;;;14.48;55.98;98727.91;5045698;28;20047;-61
2021/05/27 08:24:16;;;;;;;483.67;431.13;;;;;;;14.31;56.78;98713.84;5045949;28;20044;-61
2021/05/27 08:26:41;;;;;;;473.10;421.07;;;;;;;14.44;57.19;98728.91;5042058;28;20341;-61
2021/05/27 08:29:06;;;;;;;470.63;416.93;;;;;;;14.21;58.08;98727.94;5048913;28;20114;-60
2021/05/27 08:31:32;;;;;;;475.87;423.40;;;;;;;14.23;59.40;98729.56;5034482;28;20382;-60
2021/05/27 08:33:58;;;;;;;483.30;430.60;;;;;;;14.19;61.67;98739.13;5041065;28;20030;-61
2021/05/27 08:36:23;;;;;;;468.93;417.07;;;;;;;13.79;63.19;98743.00;5052855;28;20029;-60
2021/05/27 08:38:49;;;;;;;471.13;406.83;;;;;;;13.65;64.99;98735.69;5052625;28;20032;-60
2021/05/27 08:41:18;;;;;;;467.20;399.40;;;;;;;13.59;65.32;98744.41;5054845;28;20032;-60
2021/05/27 08:43:46;;;;;;;471.00;415.27;;;;;;;13.62;65.25;98734.00;5055335;28;20036;-61
2021/05/27 08:46:11;;;;;;;471.27;408.57;;;;;;;13.41;66.50;98744.94;5052440;28;20040;-62
2021/05/27 08:48:36;;;;;;;467.03;391.80;;;;;;;13.31;66.30;98752.97;5054088;28;20045;-61
2021/05/27 08:51:02;;;;;;;495.03;442.07;;;;;;;13.47;66.78;98744.78;5055181;28;20128;-62
2021/05/27 08:53:28;;;;;;;468.33;393.63;;;;;;;13.39;67.35;98744.16;5051840;28;20039;-59
2021/05/27 08:55:54;;;;;;;466.60;392.97;;;;;;;13.33;67.16;98746.88;5053352;28;20293;-60
2021/05/27 08:58:19;;;;;;;463.30;383.20;;;;;;;13.32;66.42;98739.22;5054336;28;20024;-60
2021/05/27 09:00:45;;;;;;;467.07;383.37;;;;;;;13.47;66.10;98751.66;5051624;28;20028;-60
2021/05/27 09:03:17;;;;;;;467.30;397.50;;;;;;;13.59;65.77;98747.00;5045426;28;20364;-61
2021/05/27 09:05:43;;;;;;;465.60;394.73;;;;;;;13.24;66.50;98750.56;5052916;28;20325;-61
2021/05/27 09:08:34;;;;;;;474.13;396.90;;;;;;;13.12;68.25;98750.91;5054166;28;20271;-61
2021/05/27 09:11:05;;;;;;;460.50;367.03;;;;;;;13.20;68.51;98748.97;5051183;28;20082;-61
2021/05/27 09:13:31;;;;;;;462.20;374.00;;;;;;;13.27;68.82;98749.66;5054500;28;20322;-59
2021/05/27 09:16:11;;;;;;;461.87;376.00;;;;;;;13.10;69.50;98755.28;5053440;28;20291;-60
2021/05/27 09:18:39;;;;;;;465.07;378.20;;;;;;;13.14;69.58;98748.31;5055814;28;20264;-61
2021/05/27 09:21:07;;;;;;;475.73;400.13;;;;;;;13.16;70.42;98757.66;5054097;28;20275;-59
2021/05/27 09:23:34;;;;;;;467.03;386.37;;;;;;;13.19;67.18;98743.88;5052383;28;20384;-60
2021/05/27 09:26:08;;;;;;;465.87;383.87;;;;;;;13.38;67.60;98750.19;5049899;28;20712;-60
2021/05/27 09:28:34;;;;;;;462.27;367.60;;;;;;;13.11;67.34;98749.22;5055854;28;20285;-60
2021/05/27 09:31:05;;;;;;;462.33;374.40;;;;;;;13.30;66.59;98753.88;5056081;28;20289;-60
2021/05/27 09:33:39;;;;;;;458.87;363.77;;;;;;;13.29;67.18;98763.31;5052411;28;20278;-60
2021/05/27 09:36:08;;;;;;;460.83;370.63;;;;;;;13.33;67.78;98761.50;5052584;28;20283;-62
2021/05/27 09:38:39;;;;;;;459.03;352.57;;;;;;;13.39;66.64;98751.88;5053328;28;20306;-61
2021/05/27 09:41:21;;;;;;;458.43;359.50;;;;;;;13.49;66.00;98767.94;5052730;28;20351;-62
2021/05/27 09:43:55;;;;;;;458.93;361.87;;;;;;;13.59;67.14;98762.44;5055284;28;20299;-60
2021/05/27 09:46:22;;;;;;;465.63;384.27;;;;;;;13.64;66.58;98770.91;5052450;28;20332;-61
2021/05/27 09:49:06;;;;;;;464.83;377.67;;;;;;;13.88;65.54;98760.75;5050507;28;20295;-60
2021/05/27 09:51:32;;;;;;;465.70;383.90;;;;;;;14.08;66.05;98771.31;5050209;28;20029;-59
2021/05/27 09:53:59;;;;;;;462.67;385.23;;;;;;;13.96;65.05;98769.94;5052311;28;20683;-60
2021/05/27 09:56:38;;;;;;;462.00;384.00;;;;;;;14.08;65.52;98771.31;5050922;28;20059;-60
2021/05/27 09:59:04;;;;;;;465.03;394.30;;;;;;;14.19;64.72;98767.50;5051936;28;20306;-61
2021/05/27 10:01:30;;;;;;;468.27;411.33;;;;;;;14.50;64.35;98756.25;5049763;28;20267;-61
2021/05/27 10:04:10;;;;;;;480.80;428.17;;;;;;;14.71;62.59;98755.53;5050818;28;20028;-62
2021/05/27 10:06:35;;;;;;;469.23;414.97;;;;;;;14.79;60.74;98743.19;5050037;28;20615;-61
2021/05/27 10:09:02;;;;;;;474.30;422.07;;;;;;;15.00;60.60;98754.53;5051505;28;20030;-61
2021/05/27 10:11:27;;;;;;;477.53;425.47;;;;;;;15.14;58.63;98752.31;5049530;28;20025;-61
2021/05/27 10:13:53;;;;;;;493.37;440.60;;;;;;;15.14;58.83;98741.97;5048801;28;20036;-61
2021/05/27 10:16:22;;;;;;;493.67;441.00;;;;;;;15.39;56.92;98754.84;5050826;28;20412;-62
2021/05/27 10:18:49;;;;;;;505.20;451.97;;;;;;;15.83;55.66;98759.22;5052326;28;20029;-61
2021/05/27 10:21:15;;;;;;;519.33;465.43;;;;;;;16.00;55.07;98754.25;5049111;28;20024;-61
2021/05/27 10:23:41;;;;;;;516.30;463.20;;;;;;;16.18;53.73;98750.09;5053709;28;20040;-62
2021/05/27 10:26:07;;;;;;;529.20;475.87;;;;;;;16.45;52.41;98751.59;5049232;28;20013;-61
2021/05/27 10:28:34;;;;;;;541.00;487.20;;;;;;;16.25;53.43;98748.13;5037590;28;20062;-61
2021/05/27 10:31:00;;;;;;;564.73;510.60;;;;;;;16.32;53.09;98745.25;5053441;28;20127;-61
2021/05/27 10:33:26;;;;;;;568.40;513.97;;;;;;;16.18;53.08;98750.09;5047245;28;20021;-61
2021/05/27 10:35:51;;;;;;;559.03;504.70;;;;;;;16.02;53.20;98743.00;5047668;28;20037;-61
2021/05/27 10:38:41;;;;;;;541.50;487.97;;;;;;;16.06;53.62;98747.16;5050280;28;20037;-61
2021/05/27 10:41:08;;;;;;;539.37;485.60;;;;;;;15.82;53.13;98747.22;5047773;28;20036;-61
2021/05/27 10:43:34;;;;;;;544.60;490.80;;;;;;;15.92;54.67;98743.38;5045573;28;20028;-61
2021/05/27 10:46:02;;;;;;;551.23;497.00;;;;;;;16.00;53.68;98751.66;5046157;28;20397;-63
2021/05/27 10:48:46;;;;;;;539.10;485.63;;;;;;;16.15;53.62;98750.25;5049387;28;20086;-60
2021/05/27 10:52:06;;;;;;;532.40;478.77;;;;;;;15.84;51.08;98750.56;5050421;28;20071;-60
2021/05/27 10:54:08;;;;;;;547.90;494.30;;;;;;;15.68;51.44;98746.91;5035769;28;20076;-61
2021/05/27 10:56:37;;;;;;;546.17;492.30;;;;;;;15.99;50.81;98741.41;5050867;28;20029;-61
2021/05/27 10:59:04;;;;;;;543.33;489.57;;;;;;;16.33;49.85;98749.53;5046552;28;20191;-61
2021/05/27 11:01:33;;;;;;;565.13;510.73;;;;;;;16.49;48.21;98744.56;5049346;28;20052;-61
2021/05/27 11:04:04;;;;;;;559.80;505.33;;;;;;;16.22;49.05;98754.25;5049365;28;20044;-61
2021/05/27 11:06:35;;;;;;;557.63;504.00;;;;;;;16.32;49.10;98750.41;5049648;28;20040;-61
2021/05/27 11:11:43;;;;;;;568.23;513.87;;;;;;;16.51;49.49;98760.03;5049411;28;20404;-61